sensor_id;sensor_type;location;lat;lon;timestamp;P1;durP1;ratioP1;P2;durP2;ratioP2
32746;SDS011;19118;50.860;13.662;2023-08-07T00:04:30;6.15;;;3.25;;
32746;SDS011;19118;50.860;13.662;2023-08-07T00:09:30;9.93;;;4.07;;
32746;SDS011;19118;50.860;13.662;2023-08-07T00:14:31;10.90;;;4.13;;
32746;SDS011;19118;50.860;13.662;2023-08-07T00:19:31;10.88;;;4.25;;
32746;SDS011;19118;50.860;13.662;2023-08-07T00:24:31;8.40;;;4.20;;
32746;SDS011;19118;50.860;13.662;2023-08-07T00:29:32;7.28;;;4.40;;
32746;SDS011;19118;50.860;13.662;2023-08-07T00:34:33;7.78;;;4.43;;
32746;SDS011;19118;50.860;13.662;2023-08-07T00:39:33;8.68;;;4.03;;
32746;SDS011;19118;50.860;13.662;2023-08-07T00:44:34;8.75;;;5.50;;
32746;SDS011;19118;50.860;13.662;2023-08-07T00:49:34;12.18;;;5.80;;
32746;SDS011;19118;50.860;13.662;2023-08-07T00:54:35;11.45;;;6.05;;
32746;SDS011;19118;50.860;13.662;2023-08-07T00:59:38;12.18;;;6.75;;
32746;SDS011;19118;50.860;13.662;2023-08-07T01:04:39;12.98;;;6.75;;
32746;SDS011;19118;50.860;13.662;2023-08-07T01:09:40;8.25;;;5.63;;
32746;SDS011;19118;50.860;13.662;2023-08-07T01:14:42;6.93;;;5.13;;
32746;SDS011;19118;50.860;13.662;2023-08-07T01:19:55;9.05;;;4.50;;
32746;SDS011;19118;50.860;13.662;2023-08-07T01:24:57;5.35;;;3.17;;
32746;SDS011;19118;50.860;13.662;2023-08-07T01:30:44;4.93;;;2.83;;
32746;SDS011;19118;50.860;13.662;2023-08-07T01:35:27;7.55;;;2.83;;
32746;SDS011;19118;50.860;13.662;2023-08-07T01:40:32;11.45;;;5.05;;
32746;SDS011;19118;50.860;13.662;2023-08-07T01:45:34;11.07;;;5.90;;
32746;SDS011;19118;50.860;13.662;2023-08-07T01:50:35;10.88;;;5.30;;
32746;SDS011;19118;50.860;13.662;2023-08-07T01:55:36;9.73;;;6.00;;
32746;SDS011;19118;50.860;13.662;2023-08-07T02:00:36;13.05;;;6.50;;
32746;SDS011;19118;50.860;13.662;2023-08-07T02:05:37;16.45;;;4.95;;
32746;SDS011;19118;50.860;13.662;2023-08-07T02:10:37;15.43;;;6.93;;
32746;SDS011;19118;50.860;13.662;2023-08-07T02:15:37;13.65;;;7.68;;
32746;SDS011;19118;50.860;13.662;2023-08-07T02:20:38;21.38;;;9.85;;
32746;SDS011;19118;50.860;13.662;2023-08-07T02:25:38;13.73;;;9.77;;
32746;SDS011;19118;50.860;13.662;2023-08-07T02:30:38;14.00;;;9.83;;
32746;SDS011;19118;50.860;13.662;2023-08-07T02:35:39;12.63;;;10.87;;
32746;SDS011;19118;50.860;13.662;2023-08-07T02:40:39;13.07;;;9.52;;
32746;SDS011;19118;50.860;13.662;2023-08-07T02:45:41;18.98;;;9.88;;
32746;SDS011;19118;50.860;13.662;2023-08-07T02:50:41;11.38;;;8.98;;
32746;SDS011;19118;50.860;13.662;2023-08-07T02:55:43;12.20;;;9.50;;
32746;SDS011;19118;50.860;13.662;2023-08-07T03:00:43;13.90;;;9.90;;
32746;SDS011;19118;50.860;13.662;2023-08-07T03:05:50;13.07;;;9.85;;
32746;SDS011;19118;50.860;13.662;2023-08-07T03:10:52;23.45;;;11.40;;
32746;SDS011;19118;50.860;13.662;2023-08-07T03:16:03;10.90;;;7.93;;
32746;SDS011;19118;50.860;13.662;2023-08-07T03:21:05;12.30;;;5.80;;
32746;SDS011;19118;50.860;13.662;2023-08-07T03:26:06;5.68;;;4.93;;
32746;SDS011;19118;50.860;13.662;2023-08-07T03:31:09;10.32;;;6.57;;
32746;SDS011;19118;50.860;13.662;2023-08-07T03:36:10;7.70;;;5.78;;
32746;SDS011;19118;50.860;13.662;2023-08-07T03:41:12;9.68;;;6.85;;
32746;SDS011;19118;50.860;13.662;2023-08-07T03:46:15;13.70;;;8.00;;
32746;SDS011;19118;50.860;13.662;2023-08-07T03:51:15;22.15;;;8.55;;
32746;SDS011;19118;50.860;13.662;2023-08-07T03:56:26;12.45;;;9.30;;
32746;SDS011;19118;50.860;13.662;2023-08-07T04:01:26;19.60;;;11.77;;
32746;SDS011;19118;50.860;13.662;2023-08-07T04:06:27;24.30;;;12.55;;
32746;SDS011;19118;50.860;13.662;2023-08-07T04:11:29;28.95;;;14.50;;
32746;SDS011;19118;50.860;13.662;2023-08-07T04:16:29;27.25;;;13.68;;
32746;SDS011;19118;50.860;13.662;2023-08-07T04:21:31;100.75;;;14.43;;
32746;SDS011;19118;50.860;13.662;2023-08-07T04:26:31;16.45;;;10.57;;
32746;SDS011;19118;50.860;13.662;2023-08-07T04:31:32;30.85;;;16.83;;
32746;SDS011;19118;50.860;13.662;2023-08-07T04:36:32;41.58;;;21.73;;
32746;SDS011;19118;50.860;13.662;2023-08-07T04:41:33;38.85;;;20.23;;
32746;SDS011;19118;50.860;13.662;2023-08-07T04:46:33;54.13;;;23.08;;
32746;SDS011;19118;50.860;13.662;2023-08-07T04:51:34;50.87;;;21.93;;
32746;SDS011;19118;50.860;13.662;2023-08-07T04:56:34;36.20;;;20.25;;
32746;SDS011;19118;50.860;13.662;2023-08-07T05:01:35;37.43;;;20.37;;
32746;SDS011;19118;50.860;13.662;2023-08-07T05:06:35;35.85;;;20.10;;
32746;SDS011;19118;50.860;13.662;2023-08-07T05:11:35;42.50;;;20.90;;
32746;SDS011;19118;50.860;13.662;2023-08-07T05:16:36;44.07;;;20.87;;
32746;SDS011;19118;50.860;13.662;2023-08-07T05:21:36;29.38;;;17.80;;
32746;SDS011;19118;50.860;13.662;2023-08-07T05:26:36;29.67;;;17.75;;
32746;SDS011;19118;50.860;13.662;2023-08-07T05:31:37;27.13;;;17.10;;
32746;SDS011;19118;50.860;13.662;2023-08-07T05:36:37;34.53;;;18.55;;
32746;SDS011;19118;50.860;13.662;2023-08-07T05:41:39;21.63;;;15.00;;
32746;SDS011;19118;50.860;13.662;2023-08-07T05:46:39;25.38;;;13.93;;
32746;SDS011;19118;50.860;13.662;2023-08-07T05:51:40;19.27;;;10.70;;
32746;SDS011;19118;50.860;13.662;2023-08-07T05:56:40;19.97;;;9.37;;
32746;SDS011;19118;50.860;13.662;2023-08-07T06:01:41;14.63;;;5.93;;
32746;SDS011;19118;50.860;13.662;2023-08-07T06:06:41;6.57;;;5.73;;
32746;SDS011;19118;50.860;13.662;2023-08-07T06:11:42;14.88;;;5.72;;
32746;SDS011;19118;50.860;13.662;2023-08-07T06:16:43;9.40;;;5.13;;
32746;SDS011;19118;50.860;13.662;2023-08-07T06:21:43;12.20;;;5.25;;
32746;SDS011;19118;50.860;13.662;2023-08-07T06:26:44;8.95;;;4.07;;
32746;SDS011;19118;50.860;13.662;2023-08-07T06:31:44;5.20;;;4.67;;
32746;SDS011;19118;50.860;13.662;2023-08-07T06:36:44;4.68;;;3.50;;
32746;SDS011;19118;50.860;13.662;2023-08-07T06:41:45;7.13;;;3.43;;
32746;SDS011;19118;50.860;13.662;2023-08-07T06:46:47;6.18;;;3.42;;
32746;SDS011;19118;50.860;13.662;2023-08-07T06:51:47;3.28;;;2.60;;
32746;SDS011;19118;50.860;13.662;2023-08-07T06:56:47;6.93;;;2.83;;
32746;SDS011;19118;50.860;13.662;2023-08-07T07:01:48;8.07;;;2.80;;
32746;SDS011;19118;50.860;13.662;2023-08-07T07:06:48;9.65;;;2.65;;
32746;SDS011;19118;50.860;13.662;2023-08-07T07:11:49;3.90;;;2.78;;
32746;SDS011;19118;50.860;13.662;2023-08-07T07:16:49;5.93;;;2.88;;
32746;SDS011;19118;50.860;13.662;2023-08-07T07:21:50;12.55;;;2.88;;
32746;SDS011;19118;50.860;13.662;2023-08-07T07:26:50;5.65;;;3.78;;
32746;SDS011;19118;50.860;13.662;2023-08-07T07:31:50;7.65;;;3.10;;
32746;SDS011;19118;50.860;13.662;2023-08-07T07:36:51;12.45;;;3.90;;
32746;SDS011;19118;50.860;13.662;2023-08-07T07:41:53;9.98;;;4.05;;
32746;SDS011;19118;50.860;13.662;2023-08-07T07:46:54;5.57;;;3.23;;
32746;SDS011;19118;50.860;13.662;2023-08-07T07:51:54;10.53;;;2.80;;
32746;SDS011;19118;50.860;13.662;2023-08-07T07:56:54;9.07;;;2.80;;
32746;SDS011;19118;50.860;13.662;2023-08-07T08:01:55;4.15;;;1.98;;
32746;SDS011;19118;50.860;13.662;2023-08-07T08:06:55;4.15;;;1.85;;
32746;SDS011;19118;50.860;13.662;2023-08-07T08:11:56;7.57;;;1.85;;
32746;SDS011;19118;50.860;13.662;2023-08-07T08:16:56;6.90;;;2.87;;
32746;SDS011;19118;50.860;13.662;2023-08-07T08:21:56;2.77;;;1.90;;
32746;SDS011;19118;50.860;13.662;2023-08-07T08:26:57;2.80;;;1.77;;
32746;SDS011;19118;50.860;13.662;2023-08-07T08:31:57;2.58;;;1.90;;
32746;SDS011;19118;50.860;13.662;2023-08-07T08:36:58;8.52;;;3.95;;
32746;SDS011;19118;50.860;13.662;2023-08-07T08:41:58;6.10;;;2.73;;
32746;SDS011;19118;50.860;13.662;2023-08-07T08:46:59;9.05;;;2.63;;
32746;SDS011;19118;50.860;13.662;2023-08-07T08:52:00;2.72;;;1.92;;
32746;SDS011;19118;50.860;13.662;2023-08-07T08:57:02;3.72;;;1.80;;
32746;SDS011;19118;50.860;13.662;2023-08-07T09:02:04;5.20;;;2.30;;
32746;SDS011;19118;50.860;13.662;2023-08-07T09:07:04;2.05;;;1.38;;
32746;SDS011;19118;50.860;13.662;2023-08-07T09:12:08;2.40;;;1.40;;
32746;SDS011;19118;50.860;13.662;2023-08-07T09:17:12;7.70;;;1.48;;
32746;SDS011;19118;50.860;13.662;2023-08-07T09:22:15;7.53;;;1.65;;
32746;SDS011;19118;50.860;13.662;2023-08-07T09:27:15;2.60;;;1.35;;
32746;SDS011;19118;50.860;13.662;2023-08-07T09:32:16;1.77;;;1.05;;
32746;SDS011;19118;50.860;13.662;2023-08-07T09:37:18;6.40;;;1.30;;
32746;SDS011;19118;50.860;13.662;2023-08-07T09:42:19;3.70;;;1.48;;
32746;SDS011;19118;50.860;13.662;2023-08-07T09:47:19;4.50;;;1.20;;
32746;SDS011;19118;50.860;13.662;2023-08-07T09:52:19;2.40;;;1.10;;
32746;SDS011;19118;50.860;13.662;2023-08-07T09:57:20;2.55;;;1.30;;
32746;SDS011;19118;50.860;13.662;2023-08-07T10:02:21;3.03;;;1.25;;
32746;SDS011;19118;50.860;13.662;2023-08-07T10:07:21;2.95;;;0.93;;
32746;SDS011;19118;50.860;13.662;2023-08-07T10:12:22;4.97;;;0.95;;
32746;SDS011;19118;50.860;13.662;2023-08-07T10:17:22;2.42;;;1.15;;
32746;SDS011;19118;50.860;13.662;2023-08-07T10:22:24;2.40;;;1.00;;
32746;SDS011;19118;50.860;13.662;2023-08-07T10:27:26;3.15;;;1.25;;
32746;SDS011;19118;50.860;13.662;2023-08-07T10:32:29;2.75;;;0.82;;
32746;SDS011;19118;50.860;13.662;2023-08-07T10:37:40;1.63;;;0.95;;
32746;SDS011;19118;50.860;13.662;2023-08-07T10:48:01;5.13;;;1.08;;
32746;SDS011;19118;50.860;13.662;2023-08-07T10:53:04;4.05;;;0.88;;
32746;SDS011;19118;50.860;13.662;2023-08-07T10:58:05;2.40;;;0.97;;
32746;SDS011;19118;50.860;13.662;2023-08-07T11:03:05;9.07;;;1.17;;
32746;SDS011;19118;50.860;13.662;2023-08-07T11:08:08;5.82;;;1.13;;
32746;SDS011;19118;50.860;13.662;2023-08-07T11:13:09;4.78;;;0.98;;
32746;SDS011;19118;50.860;13.662;2023-08-07T11:18:09;1.10;;;1.00;;
32746;SDS011;19118;50.860;13.662;2023-08-07T11:23:10;5.20;;;0.98;;
32746;SDS011;19118;50.860;13.662;2023-08-07T11:28:11;2.60;;;0.90;;
32746;SDS011;19118;50.860;13.662;2023-08-07T11:33:12;0.93;;;0.80;;
32746;SDS011;19118;50.860;13.662;2023-08-07T11:38:12;1.23;;;0.85;;
32746;SDS011;19118;50.860;13.662;2023-08-07T11:43:12;1.00;;;0.90;;
32746;SDS011;19118;50.860;13.662;2023-08-07T11:48:13;1.58;;;0.88;;
32746;SDS011;19118;50.860;13.662;2023-08-07T11:53:13;1.75;;;0.82;;
32746;SDS011;19118;50.860;13.662;2023-08-07T11:58:14;1.20;;;0.90;;
32746;SDS011;19118;50.860;13.662;2023-08-07T12:03:30;1.45;;;0.75;;
32746;SDS011;19118;50.860;13.662;2023-08-07T12:08:37;5.30;;;1.10;;
32746;SDS011;19118;50.860;13.662;2023-08-07T12:13:39;0.70;;;0.50;;
32746;SDS011;19118;50.860;13.662;2023-08-07T12:18:48;5.15;;;0.60;;
32746;SDS011;19118;50.860;13.662;2023-08-07T12:23:49;1.20;;;0.63;;
32746;SDS011;19118;50.860;13.662;2023-08-07T12:28:52;1.52;;;0.40;;
32746;SDS011;19118;50.860;13.662;2023-08-07T12:33:53;1.00;;;0.50;;
32746;SDS011;19118;50.860;13.662;2023-08-07T12:38:53;0.75;;;0.40;;
32746;SDS011;19118;50.860;13.662;2023-08-07T12:43:54;3.60;;;0.60;;
32746;SDS011;19118;50.860;13.662;2023-08-07T12:48:54;1.20;;;0.60;;
32746;SDS011;19118;50.860;13.662;2023-08-07T12:53:54;1.00;;;0.80;;
32746;SDS011;19118;50.860;13.662;2023-08-07T12:58:55;0.60;;;0.40;;
32746;SDS011;19118;50.860;13.662;2023-08-07T13:03:55;4.10;;;0.97;;
32746;SDS011;19118;50.860;13.662;2023-08-07T13:08:55;0.73;;;0.60;;
32746;SDS011;19118;50.860;13.662;2023-08-07T13:13:56;1.80;;;0.70;;
32746;SDS011;19118;50.860;13.662;2023-08-07T13:18:56;5.03;;;0.80;;
32746;SDS011;19118;50.860;13.662;2023-08-07T13:23:57;1.15;;;0.70;;
32746;SDS011;19118;50.860;13.662;2023-08-07T13:28:57;2.20;;;0.77;;
32746;SDS011;19118;50.860;13.662;2023-08-07T13:33:58;0.87;;;0.60;;
32746;SDS011;19118;50.860;13.662;2023-08-07T13:38:58;5.45;;;1.08;;
32746;SDS011;19118;50.860;13.662;2023-08-07T13:44:00;0.70;;;0.55;;
32746;SDS011;19118;50.860;13.662;2023-08-07T13:49:00;0.95;;;0.43;;
32746;SDS011;19118;50.860;13.662;2023-08-07T13:54:01;2.08;;;0.52;;
32746;SDS011;19118;50.860;13.662;2023-08-07T13:59:01;2.30;;;0.60;;
32746;SDS011;19118;50.860;13.662;2023-08-07T14:04:02;0.60;;;0.40;;
32746;SDS011;19118;50.860;13.662;2023-08-07T14:09:02;0.77;;;0.40;;
32746;SDS011;19118;50.860;13.662;2023-08-07T14:14:03;0.83;;;0.50;;
32746;SDS011;19118;50.860;13.662;2023-08-07T14:19:03;3.03;;;0.77;;
32746;SDS011;19118;50.860;13.662;2023-08-07T14:24:04;1.97;;;0.60;;
32746;SDS011;19118;50.860;13.662;2023-08-07T14:29:05;111.90;;;6.32;;
32746;SDS011;19118;50.860;13.662;2023-08-07T14:34:05;2.63;;;1.00;;
32746;SDS011;19118;50.860;13.662;2023-08-07T14:39:06;2.15;;;1.08;;
32746;SDS011;19118;50.860;13.662;2023-08-07T14:44:06;3.57;;;1.57;;
32746;SDS011;19118;50.860;13.662;2023-08-07T14:49:06;2.17;;;1.17;;
32746;SDS011;19118;50.860;13.662;2023-08-07T14:54:07;2.85;;;1.10;;
32746;SDS011;19118;50.860;13.662;2023-08-07T14:59:08;1.80;;;1.40;;
32746;SDS011;19118;50.860;13.662;2023-08-07T15:04:09;2.58;;;1.27;;
32746;SDS011;19118;50.860;13.662;2023-08-07T15:09:10;2.90;;;1.70;;
32746;SDS011;19118;50.860;13.662;2023-08-07T15:14:10;2.67;;;1.80;;
32746;SDS011;19118;50.860;13.662;2023-08-07T15:19:11;4.80;;;1.23;;
32746;SDS011;19118;50.860;13.662;2023-08-07T15:24:11;2.17;;;0.98;;
32746;SDS011;19118;50.860;13.662;2023-08-07T15:29:12;1.57;;;0.67;;
32746;SDS011;19118;50.860;13.662;2023-08-07T15:34:12;1.20;;;0.75;;
32746;SDS011;19118;50.860;13.662;2023-08-07T15:39:13;0.80;;;0.73;;
32746;SDS011;19118;50.860;13.662;2023-08-07T15:44:13;2.65;;;0.80;;
32746;SDS011;19118;50.860;13.662;2023-08-07T15:49:13;3.05;;;0.60;;
32746;SDS011;19118;50.860;13.662;2023-08-07T15:54:14;8.27;;;0.90;;
32746;SDS011;19118;50.860;13.662;2023-08-07T15:59:14;1.45;;;0.85;;
32746;SDS011;19118;50.860;13.662;2023-08-07T16:04:15;4.05;;;0.75;;
32746;SDS011;19118;50.860;13.662;2023-08-07T16:09:15;3.28;;;0.80;;
32746;SDS011;19118;50.860;13.662;2023-08-07T16:14:15;3.53;;;0.82;;
32746;SDS011;19118;50.860;13.662;2023-08-07T16:19:17;3.42;;;0.88;;
32746;SDS011;19118;50.860;13.662;2023-08-07T16:24:18;2.80;;;1.10;;
32746;SDS011;19118;50.860;13.662;2023-08-07T16:29:19;2.30;;;1.10;;
32746;SDS011;19118;50.860;13.662;2023-08-07T16:34:20;5.50;;;1.63;;
32746;SDS011;19118;50.860;13.662;2023-08-07T16:39:20;1.30;;;1.00;;
32746;SDS011;19118;50.860;13.662;2023-08-07T16:44:20;5.00;;;1.17;;
32746;SDS011;19118;50.860;13.662;2023-08-07T16:49:21;3.00;;;0.82;;
32746;SDS011;19118;50.860;13.662;2023-08-07T16:54:21;1.63;;;1.00;;
32746;SDS011;19118;50.860;13.662;2023-08-07T16:59:22;1.65;;;0.90;;
32746;SDS011;19118;50.860;13.662;2023-08-07T17:04:22;12.20;;;1.80;;
32746;SDS011;19118;50.860;13.662;2023-08-07T17:09:23;2.38;;;1.17;;
32746;SDS011;19118;50.860;13.662;2023-08-07T17:14:23;5.00;;;0.97;;
32746;SDS011;19118;50.860;13.662;2023-08-07T17:19:23;3.42;;;1.45;;
32746;SDS011;19118;50.860;13.662;2023-08-07T17:24:24;9.30;;;1.27;;
32746;SDS011;19118;50.860;13.662;2023-08-07T17:29:24;4.28;;;1.23;;
32746;SDS011;19118;50.860;13.662;2023-08-07T17:34:25;2.50;;;1.10;;
32746;SDS011;19118;50.860;13.662;2023-08-07T17:39:25;13.68;;;1.70;;
32746;SDS011;19118;50.860;13.662;2023-08-07T17:44:26;10.70;;;1.20;;
32746;SDS011;19118;50.860;13.662;2023-08-07T17:49:26;3.17;;;1.57;;
32746;SDS011;19118;50.860;13.662;2023-08-07T17:54:26;4.93;;;1.98;;
32746;SDS011;19118;50.860;13.662;2023-08-07T17:59:27;7.77;;;2.47;;
32746;SDS011;19118;50.860;13.662;2023-08-07T18:04:27;16.17;;;2.35;;
32746;SDS011;19118;50.860;13.662;2023-08-07T18:09:28;6.78;;;2.33;;
32746;SDS011;19118;50.860;13.662;2023-08-07T18:14:28;8.97;;;3.03;;
32746;SDS011;19118;50.860;13.662;2023-08-07T18:19:29;8.88;;;2.33;;
32746;SDS011;19118;50.860;13.662;2023-08-07T18:24:29;8.47;;;2.70;;
32746;SDS011;19118;50.860;13.662;2023-08-07T18:29:29;16.70;;;3.10;;
32746;SDS011;19118;50.860;13.662;2023-08-07T18:34:30;9.02;;;3.28;;
32746;SDS011;19118;50.860;13.662;2023-08-07T18:39:31;12.65;;;3.10;;
32746;SDS011;19118;50.860;13.662;2023-08-07T18:44:32;17.20;;;3.22;;
32746;SDS011;19118;50.860;13.662;2023-08-07T18:49:32;16.52;;;3.85;;
32746;SDS011;19118;50.860;13.662;2023-08-07T18:54:33;13.65;;;3.50;;
32746;SDS011;19118;50.860;13.662;2023-08-07T18:59:33;17.23;;;3.53;;
32746;SDS011;19118;50.860;13.662;2023-08-07T19:04:34;14.95;;;3.67;;
32746;SDS011;19118;50.860;13.662;2023-08-07T19:09:34;10.75;;;3.75;;
32746;SDS011;19118;50.860;13.662;2023-08-07T19:14:35;12.45;;;3.17;;
32746;SDS011;19118;50.860;13.662;2023-08-07T19:19:35;15.77;;;3.92;;
32746;SDS011;19118;50.860;13.662;2023-08-07T19:24:36;10.13;;;3.13;;
32746;SDS011;19118;50.860;13.662;2023-08-07T19:29:36;11.05;;;4.40;;
32746;SDS011;19118;50.860;13.662;2023-08-07T19:34:37;11.37;;;3.87;;
32746;SDS011;19118;50.860;13.662;2023-08-07T19:39:37;17.10;;;4.00;;
32746;SDS011;19118;50.860;13.662;2023-08-07T19:44:38;9.70;;;3.27;;
32746;SDS011;19118;50.860;13.662;2023-08-07T19:49:38;15.65;;;3.85;;
32746;SDS011;19118;50.860;13.662;2023-08-07T19:54:39;25.40;;;3.45;;
32746;SDS011;19118;50.860;13.662;2023-08-07T19:59:43;12.15;;;3.78;;
32746;SDS011;19118;50.860;13.662;2023-08-07T20:04:43;11.23;;;4.17;;
32746;SDS011;19118;50.860;13.662;2023-08-07T20:09:44;17.33;;;3.63;;
32746;SDS011;19118;50.860;13.662;2023-08-07T20:14:44;11.52;;;3.05;;
32746;SDS011;19118;50.860;13.662;2023-08-07T20:19:45;11.95;;;3.25;;
32746;SDS011;19118;50.860;13.662;2023-08-07T20:24:47;6.30;;;3.22;;
32746;SDS011;19118;50.860;13.662;2023-08-07T20:29:47;18.63;;;2.70;;
32746;SDS011;19118;50.860;13.662;2023-08-07T20:34:48;12.55;;;3.20;;
32746;SDS011;19118;50.860;13.662;2023-08-07T20:39:48;12.30;;;2.93;;
32746;SDS011;19118;50.860;13.662;2023-08-07T20:44:49;13.10;;;2.75;;
32746;SDS011;19118;50.860;13.662;2023-08-07T20:49:50;13.60;;;3.92;;
32746;SDS011;19118;50.860;13.662;2023-08-07T20:54:50;6.47;;;3.05;;
32746;SDS011;19118;50.860;13.662;2023-08-07T20:59:51;15.80;;;2.97;;
32746;SDS011;19118;50.860;13.662;2023-08-07T21:04:51;18.27;;;3.15;;
32746;SDS011;19118;50.860;13.662;2023-08-07T21:09:52;16.17;;;3.78;;
32746;SDS011;19118;50.860;13.662;2023-08-07T21:14:52;10.40;;;3.30;;
32746;SDS011;19118;50.860;13.662;2023-08-07T21:19:53;20.67;;;3.47;;
32746;SDS011;19118;50.860;13.662;2023-08-07T21:24:53;14.82;;;3.08;;
32746;SDS011;19118;50.860;13.662;2023-08-07T21:29:54;12.63;;;3.80;;
32746;SDS011;19118;50.860;13.662;2023-08-07T21:34:54;11.52;;;3.60;;
32746;SDS011;19118;50.860;13.662;2023-08-07T21:39:55;8.80;;;3.70;;
32746;SDS011;19118;50.860;13.662;2023-08-07T21:44:55;12.43;;;3.92;;
32746;SDS011;19118;50.860;13.662;2023-08-07T21:49:55;9.35;;;3.20;;
32746;SDS011;19118;50.860;13.662;2023-08-07T21:54:56;12.27;;;3.37;;
32746;SDS011;19118;50.860;13.662;2023-08-07T21:59:56;10.07;;;2.65;;
32746;SDS011;19118;50.860;13.662;2023-08-07T22:04:56;13.13;;;3.40;;
32746;SDS011;19118;50.860;13.662;2023-08-07T22:09:57;9.93;;;2.80;;
32746;SDS011;19118;50.860;13.662;2023-08-07T22:14:57;8.68;;;3.38;;
32746;SDS011;19118;50.860;13.662;2023-08-07T22:19:58;9.75;;;2.60;;
32746;SDS011;19118;50.860;13.662;2023-08-07T22:24:58;15.57;;;4.55;;
32746;SDS011;19118;50.860;13.662;2023-08-07T22:29:58;5.20;;;2.65;;
32746;SDS011;19118;50.860;13.662;2023-08-07T22:35:00;11.88;;;3.13;;
32746;SDS011;19118;50.860;13.662;2023-08-07T22:40:01;13.90;;;3.30;;
32746;SDS011;19118;50.860;13.662;2023-08-07T22:45:02;4.50;;;2.53;;
32746;SDS011;19118;50.860;13.662;2023-08-07T22:50:02;9.15;;;3.35;;
32746;SDS011;19118;50.860;13.662;2023-08-07T22:55:03;7.88;;;2.95;;
32746;SDS011;19118;50.860;13.662;2023-08-07T23:00:04;5.22;;;2.47;;
32746;SDS011;19118;50.860;13.662;2023-08-07T23:05:05;7.68;;;3.13;;
32746;SDS011;19118;50.860;13.662;2023-08-07T23:10:06;8.82;;;3.20;;
32746;SDS011;19118;50.860;13.662;2023-08-07T23:15:07;8.60;;;2.97;;
32746;SDS011;19118;50.860;13.662;2023-08-07T23:20:08;8.10;;;3.22;;
32746;SDS011;19118;50.860;13.662;2023-08-07T23:25:09;13.75;;;3.33;;
32746;SDS011;19118;50.860;13.662;2023-08-07T23:30:10;8.52;;;2.97;;
32746;SDS011;19118;50.860;13.662;2023-08-07T23:35:10;5.47;;;2.80;;
32746;SDS011;19118;50.860;13.662;2023-08-07T23:40:11;9.20;;;4.20;;
32746;SDS011;19118;50.860;13.662;2023-08-07T23:45:11;9.77;;;3.10;;
32746;SDS011;19118;50.860;13.662;2023-08-07T23:50:12;7.95;;;2.78;;
32746;SDS011;19118;50.860;13.662;2023-08-07T23:55:12;12.18;;;3.58;;
